Time;durP1;ratioP1;P1;durP2;ratioP2;P2;SDS_P1;SDS_P2;PMS_P1;PMS_P2;Temp;Humidity;BMP_temperature;BMP_pressure;BME280_temperature;BME280_humidity;BME280_pressure;Samples;Min_cycle;Max_cycle;Signal;HPM_P1;HPM_P2
2022/05/01 00:00:05;;;;;;;;;11.00;8.00;;;;;;;;5074467;28;45397;-82
2022/05/01 00:02:47;;;;;;;;;9.33;8.67;;;;;;;;5071472;28;44730;-83
2022/05/01 00:05:18;;;;;;;;;8.67;8.67;;;;;;;;5058147;28;45361;-83
2022/05/01 00:07:46;;;;;;;;;10.00;9.00;;;;;;;;5066628;28;45395;-82
2022/05/01 00:10:35;;;;;;;;;12.33;11.67;;;;;;;;5064341;28;46361;-82
2022/05/01 00:19:40;;;;;;;;;9.67;9.67;;;;;;;;5045673;28;45285;-82
2022/05/01 00:25:09;;;;;;;;;11.00;10.00;;;;;;;;5048346;28;45434;-83
2022/05/01 00:27:52;;;;;;;;;11.00;9.33;;;;;;;;5035117;28;45496;-81
2022/05/01 00:30:27;;;;;;;;;10.33;10.00;;;;;;;;5029937;28;45711;-84
2022/05/01 00:42:02;;;;;;;;;10.00;9.33;;;;;;;;5049875;28;44868;-82
2022/05/01 01:07:03;;;;;;;;;14.00;10.00;;;;;;;;5028772;28;45582;-82
2022/05/01 01:09:59;;;;;;;;;8.00;6.67;;;;;;;;5022983;28;46871;-82
2022/05/01 01:15:35;;;;;;;;;11.33;9.00;;;;;;;;5027537;28;45486;-82
2022/05/01 01:18:09;;;;;;;;;11.00;10.00;;;;;;;;5039661;28;45950;-82
2022/05/01 01:20:57;;;;;;;;;12.67;10.33;;;;;;;;5047541;28;45937;-84
2022/05/01 01:32:12;;;;;;;;;15.33;12.67;;;;;;;;5004861;28;45396;-83
2022/05/01 01:44:54;;;;;;;;;15.00;12.33;;;;;;;;4826017;29;45873;-80
2022/05/01 01:47:26;;;;;;;;;11.00;10.67;;;;;;;;4822936;29;45532;-81
2022/05/01 01:56:21;;;;;;;;;11.67;11.67;;;;;;;;4794468;29;46377;-81
2022/05/01 01:58:53;;;;;;;;;16.00;13.33;;;;;;;;4847730;29;45424;-81
2022/05/01 02:04:27;;;;;;;;;13.33;11.33;;;;;;;;4847507;29;45869;-82
2022/05/01 02:07:42;;;;;;;;;16.67;11.00;;;;;;;;4830050;29;46480;-80
2022/05/01 02:10:08;;;;;;;;;14.00;12.00;;;;;;;;4863409;29;45907;-84
2022/05/01 02:12:40;;;;;;;;;12.67;11.33;;;;;;;;4870775;28;45918;-81
2022/05/01 02:15:18;;;;;;;;;12.33;9.67;;;;;;;;4980108;28;44897;-83
2022/05/01 02:24:08;;;;;;;;;12.67;12.67;;;;;;;;4979553;28;45464;-82
2022/05/01 02:29:58;;;;;;;;;12.33;12.33;;;;;;;;4957838;28;45896;-82
2022/05/01 02:32:27;;;;;;;;;11.67;11.67;;;;;;;;4990304;28;46315;-83
2022/05/01 02:34:56;;;;;;;;;15.00;13.00;;;;;;;;5015841;28;45376;-82
2022/05/01 02:37:40;;;;;;;;;15.33;13.33;;;;;;;;5062589;28;46182;-81
2022/05/01 02:40:31;;;;;;;;;13.00;12.00;;;;;;;;5081086;28;46778;-81
2022/05/01 02:43:18;;;;;;;;;15.33;13.00;;;;;;;;5063768;28;45851;-80
2022/05/01 02:45:59;;;;;;;;;13.00;12.00;;;;;;;;5082157;28;45483;-81
2022/05/01 02:48:38;;;;;;;;;15.33;12.33;;;;;;;;5042599;28;46980;-80
2022/05/01 02:51:22;;;;;;;;;15.33;13.00;;;;;;;;5062158;28;45526;-80
2022/05/01 02:53:50;;;;;;;;;16.33;14.00;;;;;;;;5042916;28;45454;-82
2022/05/01 02:56:22;;;;;;;;;13.00;12.00;;;;;;;;5042855;28;45277;-84
2022/05/01 02:58:53;;;;;;;;;15.00;12.67;;;;;;;;5041819;28;46173;-82
2022/05/01 03:01:40;;;;;;;;;14.33;13.33;;;;;;;;5060904;28;47776;-82
2022/05/01 03:04:38;;;;;;;;;15.67;14.67;;;;;;;;5074410;27;45805;-82
2022/05/01 03:07:39;;;;;;;;;18.33;15.00;;;;;;;;5063109;28;45431;-82
2022/05/01 03:10:22;;;;;;;;;14.00;12.67;;;;;;;;5061276;28;46574;-82
2022/05/01 03:13:20;;;;;;;;;12.00;11.00;;;;;;;;5085712;28;45791;-82
2022/05/01 03:27:38;;;;;;;;;;;;;;;;;;;;;
2022/05/01 03:30:23;;;;;;;;;17.67;14.67;;;;;;;;5083975;28;45375;-83
2022/05/01 03:33:11;;;;;;;;;14.67;11.33;;;;;;;;5063767;28;45740;-80
2022/05/01 03:36:06;;;;;;;;;21.33;15.67;;;;;;;;5085664;28;45651;-82
2022/05/01 03:38:50;;;;;;;;;13.33;12.33;;;;;;;;5067508;28;44846;-83
2022/05/01 03:41:54;;;;;;;;;16.33;15.33;;;;;;;;5055901;28;45357;-83
2022/05/01 03:44:26;;;;;;;;;19.00;14.33;;;;;;;;5004404;28;46052;-82
2022/05/01 03:46:55;;;;;;;;;18.67;15.00;;;;;;;;5081499;28;47324;-82
2022/05/01 03:49:29;;;;;;;;;20.00;16.00;;;;;;;;5075381;28;45390;-80
2022/05/01 03:52:13;;;;;;;;;17.33;14.67;;;;;;;;5080587;28;45362;-82
2022/05/01 03:54:51;;;;;;;;;20.00;16.00;;;;;;;;5082929;28;45778;-82
2022/05/01 03:57:25;;;;;;;;;17.33;17.33;;;;;;;;5083149;28;45673;-83
2022/05/01 03:59:57;;;;;;;;;18.00;15.67;;;;;;;;5067796;28;45402;-77
2022/05/01 04:02:22;;;;;;;;;16.67;15.33;;;;;;;;5082578;28;45428;-82
2022/05/01 04:04:52;;;;;;;;;19.67;19.67;;;;;;;;5085029;28;45198;-83
2022/05/01 04:07:17;;;;;;;;;17.67;12.33;;;;;;;;5075768;28;45716;-77
2022/05/01 04:12:55;;;;;;;;;19.67;17.33;;;;;;;;5083594;28;45304;-82
2022/05/01 04:29:36;;;;;;;;;20.00;16.67;;;;;;;;4872256;29;45655;-82
2022/05/01 04:31:55;;;;;;;;;21.67;18.67;;;;;;;;4856014;29;45306;-83
2022/05/01 04:46:54;;;;;;;;;15.00;13.67;;;;;;;;4799558;29;44837;-82
2022/05/01 05:02:03;;;;;;;;;24.67;20.67;;;;;;;;4946383;28;45492;-86
2022/05/01 05:04:29;;;;;;;;;19.33;16.67;;;;;;;;5013716;28;45528;-86
2022/05/01 05:06:54;;;;;;;;;18.00;15.00;;;;;;;;5044167;28;46743;-85
2022/05/01 05:12:05;;;;;;;;;16.33;14.00;;;;;;;;5092315;28;44791;-83
2022/05/01 05:14:30;;;;;;;;;20.33;18.33;;;;;;;;5068761;28;46100;-85
2022/05/01 05:16:57;;;;;;;;;19.00;17.67;;;;;;;;5079314;28;47495;-83
2022/05/01 05:19:23;;;;;;;;;22.67;19.33;;;;;;;;5061080;28;45527;-77
2022/05/01 05:21:48;;;;;;;;;19.67;15.67;;;;;;;;5069602;27;45460;-77
2022/05/01 05:24:14;;;;;;;;;14.33;14.00;;;;;;;;5079185;28;45531;-82
2022/05/01 05:26:39;;;;;;;;;16.67;16.67;;;;;;;;5089420;28;45433;-83
2022/05/01 05:29:08;;;;;;;;;22.33;17.67;;;;;;;;5067479;28;45841;-82
2022/05/01 05:31:34;;;;;;;;;20.33;17.00;;;;;;;;5087994;28;45446;-84
2022/05/01 05:34:01;;;;;;;;;15.67;14.00;;;;;;;;5077762;28;45305;-83
2022/05/01 05:36:26;;;;;;;;;15.00;13.33;;;;;;;;5080369;28;45739;-82
2022/05/01 05:38:52;;;;;;;;;16.33;13.33;;;;;;;;5084063;27;45453;-80
2022/05/01 05:41:17;;;;;;;;;16.00;13.67;;;;;;;;5097358;27;45425;-82
2022/05/01 05:43:43;;;;;;;;;12.33;9.67;;;;;;;;5086269;27;45999;-83
2022/05/01 05:46:08;;;;;;;;;15.33;12.00;;;;;;;;5081893;27;45502;-80
2022/05/01 05:48:33;;;;;;;;;20.67;15.67;;;;;;;;5061233;28;44828;-81
2022/05/01 05:50:59;;;;;;;;;14.33;13.00;;;;;;;;5077624;28;45607;-82
2022/05/01 05:53:24;;;;;;;;;15.67;14.33;;;;;;;;5074394;28;46024;-78
2022/05/01 05:55:49;;;;;;;;;15.00;13.67;;;;;;;;5073870;28;45873;-79
2022/05/01 05:58:15;;;;;;;;;13.33;11.33;;;;;;;;5069429;28;45774;-78
2022/05/01 06:00:40;;;;;;;;;18.00;16.00;;;;;;;;5054210;27;46081;-80
2022/05/01 06:03:06;;;;;;;;;14.33;14.33;;;;;;;;5034658;28;45506;-78
2022/05/01 06:05:31;;;;;;;;;18.00;16.67;;;;;;;;5057499;28;45525;-84
2022/05/01 06:07:57;;;;;;;;;19.00;14.67;;;;;;;;5038685;28;45882;-80
2022/05/01 06:10:23;;;;;;;;;17.33;16.33;;;;;;;;5035851;28;45644;-77
2022/05/01 06:12:48;;;;;;;;;19.33;17.33;;;;;;;;5037309;28;46641;-78
2022/05/01 06:15:13;;;;;;;;;17.33;15.33;;;;;;;;5035098;28;45986;-85
2022/05/01 06:17:40;;;;;;;;;60.00;46.50;;;;;;;;5056866;28;45389;-78
2022/05/01 06:20:06;;;;;;;;;22.33;20.00;;;;;;;;5038209;28;45981;-79
2022/05/01 06:22:34;;;;;;;;;19.00;16.33;;;;;;;;5058233;28;45320;-81
2022/05/01 06:25:01;;;;;;;;;13.33;12.33;;;;;;;;5055029;28;45814;-77
2022/05/01 06:27:26;;;;;;;;;14.33;12.67;;;;;;;;5051678;28;45830;-76
2022/05/01 06:29:51;;;;;;;;;20.00;17.33;;;;;;;;5053849;28;45817;-78
2022/05/01 06:32:18;;;;;;;;;15.67;14.67;;;;;;;;5060558;28;45448;-84
2022/05/01 06:34:45;;;;;;;;;20.00;17.33;;;;;;;;5043557;28;45746;-83
2022/05/01 06:37:10;;;;;;;;;16.67;13.00;;;;;;;;5044556;28;45825;-83
2022/05/01 06:39:36;;;;;;;;;18.00;16.33;;;;;;;;5062814;28;45447;-82
2022/05/01 06:42:01;;;;;;;;;20.33;14.67;;;;;;;;5051987;28;45742;-78
2022/05/01 06:44:26;;;;;;;;;16.00;15.67;;;;;;;;5059214;28;45535;-78
2022/05/01 06:46:52;;;;;;;;;16.33;16.33;;;;;;;;5038734;28;45402;-80
2022/05/01 06:49:17;;;;;;;;;18.33;14.00;;;;;;;;5049806;28;45858;-78
2022/05/01 06:51:44;;;;;;;;;19.50;17.00;;;;;;;;5050385;28;45528;-77
2022/05/01 06:54:10;;;;;;;;;21.33;16.67;;;;;;;;5054500;28;46080;-78
2022/05/01 06:56:35;;;;;;;;;16.67;15.67;;;;;;;;5050705;28;45959;-78
2022/05/01 06:59:01;;;;;;;;;19.00;17.67;;;;;;;;5035600;28;45431;-78
2022/05/01 07:01:26;;;;;;;;;20.33;19.67;;;;;;;;5055530;28;45607;-80
2022/05/01 07:03:51;;;;;;;;;19.33;19.33;;;;;;;;5041538;28;46788;-79
2022/05/01 07:06:16;;;;;;;;;17.00;14.67;;;;;;;;5061774;28;45531;-84
2022/05/01 07:08:42;;;;;;;;;23.67;17.67;;;;;;;;5042579;28;45841;-81
2022/05/01 07:11:07;;;;;;;;;21.67;19.67;;;;;;;;5037675;28;45848;-83
2022/05/01 07:13:33;;;;;;;;;19.33;19.33;;;;;;;;5058432;28;45602;-78
2022/05/01 07:15:58;;;;;;;;;24.00;21.00;;;;;;;;5042290;28;45463;-82
2022/05/01 07:18:23;;;;;;;;;22.33;20.33;;;;;;;;5047283;28;45664;-82
2022/05/01 07:20:49;;;;;;;;;26.00;22.67;;;;;;;;5057004;28;45923;-77
2022/05/01 07:23:14;;;;;;;;;23.00;20.33;;;;;;;;5042648;28;47099;-78
2022/05/01 07:25:40;;;;;;;;;19.33;19.33;;;;;;;;5051631;28;45389;-80
2022/05/01 07:28:05;;;;;;;;;17.33;16.67;;;;;;;;5049308;28;45524;-79
2022/05/01 07:30:32;;;;;;;;;22.33;21.33;;;;;;;;5031003;28;47002;-82
2022/05/01 07:32:58;;;;;;;;;19.00;19.00;;;;;;;;5029021;28;46277;-80
2022/05/01 07:38:51;;;;;;;;;19.33;19.00;;;;;;;;5062560;28;44877;-84
2022/05/01 07:42:05;;;;;;;;;;;;;;;;;;;;;
2022/05/01 07:45:25;;;;;;;;;;;;;;;;;;;;;
2022/05/01 07:51:03;;;;;;;;;18.00;18.00;;;;;;;;4923069;28;45570;-81
2022/05/01 07:53:53;;;;;;;;;18.33;18.33;;;;;;;;4902533;28;45458;-86
2022/05/01 07:56:24;;;;;;;;;17.33;15.67;;;;;;;;4928453;28;45661;-82
2022/05/01 07:58:52;;;;;;;;;16.67;15.00;;;;;;;;4972903;28;45945;-81
2022/05/01 08:01:18;;;;;;;;;17.67;15.33;;;;;;;;5009660;28;45652;-81
2022/05/01 08:06:37;;;;;;;;;20.33;17.33;;;;;;;;5047127;28;45753;-82
2022/05/01 08:09:04;;;;;;;;;20.67;18.00;;;;;;;;5031655;28;45795;-81
2022/05/01 08:11:33;;;;;;;;;16.00;13.67;;;;;;;;5036429;28;45531;-81
2022/05/01 08:14:01;;;;;;;;;18.67;14.33;;;;;;;;5045738;28;46246;-81
2022/05/01 08:16:26;;;;;;;;;15.00;15.00;;;;;;;;5043475;28;47962;-81
2022/05/01 08:21:36;;;;;;;;;14.33;14.33;;;;;;;;5061215;28;45529;-82
2022/05/01 08:24:02;;;;;;;;;16.33;16.33;;;;;;;;5043064;28;45792;-81
2022/05/01 08:26:33;;;;;;;;;17.00;17.00;;;;;;;;5055982;28;46709;-82
2022/05/01 08:28:58;;;;;;;;;14.33;13.00;;;;;;;;5058360;28;45362;-77
2022/05/01 08:31:26;;;;;;;;;16.67;14.00;;;;;;;;5064573;28;45808;-86
2022/05/01 08:33:55;;;;;;;;;21.67;15.67;;;;;;;;5061140;28;45714;-83
2022/05/01 08:36:24;;;;;;;;;17.00;16.00;;;;;;;;5042730;28;45918;-82
2022/05/01 08:38:56;;;;;;;;;15.67;15.00;;;;;;;;5057968;28;45334;-85
2022/05/01 08:41:24;;;;;;;;;13.00;13.00;;;;;;;;5035203;28;44765;-86
2022/05/01 08:43:52;;;;;;;;;20.67;16.33;;;;;;;;5065291;28;45459;-81
2022/05/01 08:46:26;;;;;;;;;16.67;14.00;;;;;;;;5068658;28;46416;-87
2022/05/01 08:49:01;;;;;;;;;15.33;14.33;;;;;;;;5071486;28;45441;-87
2022/05/01 08:51:29;;;;;;;;;16.00;14.33;;;;;;;;5058274;28;45684;-82
2022/05/01 08:53:56;;;;;;;;;18.67;18.67;;;;;;;;5059157;28;45426;-87
2022/05/01 08:56:33;;;;;;;;;23.00;15.67;;;;;;;;5045112;28;46831;-88
2022/05/01 08:58:59;;;;;;;;;14.67;14.00;;;;;;;;5043712;28;45561;-82
2022/05/01 09:01:34;;;;;;;;;20.00;18.00;;;;;;;;5039719;28;45340;-85
2022/05/01 09:04:00;;;;;;;;;19.00;19.00;;;;;;;;5030364;28;45837;-86
2022/05/01 09:06:26;;;;;;;;;16.33;15.00;;;;;;;;5046206;28;45901;-81
2022/05/01 09:08:51;;;;;;;;;16.33;15.00;;;;;;;;5030895;28;45348;-81
2022/05/01 09:14:05;;;;;;;;;14.67;13.67;;;;;;;;5055309;28;45459;-80
2022/05/01 09:16:36;;;;;;;;;16.00;14.33;;;;;;;;5050107;28;46784;-84
2022/05/01 09:19:30;;;;;;;;;18.00;16.67;;;;;;;;5051864;28;45398;-81
2022/05/01 09:22:01;;;;;;;;;22.67;19.33;;;;;;;;5051778;28;45645;-80
2022/05/01 09:24:27;;;;;;;;;16.67;16.67;;;;;;;;5050352;28;45572;-80
2022/05/01 09:26:59;;;;;;;;;17.00;14.00;;;;;;;;5050622;28;47687;-83
2022/05/01 09:29:34;;;;;;;;;19.33;18.00;;;;;;;;5034443;28;45905;-80
2022/05/01 09:32:06;;;;;;;;;16.00;14.67;;;;;;;;5054666;28;45612;-83
2022/05/01 09:35:00;;;;;;;;;15.00;14.33;;;;;;;;5053258;28;45836;-80
2022/05/01 09:37:28;;;;;;;;;14.67;13.67;;;;;;;;5048260;28;46588;-81
2022/05/01 09:42:48;;;;;;;;;14.33;14.00;;;;;;;;5049461;28;45611;-80
2022/05/01 09:45:14;;;;;;;;;16.00;13.33;;;;;;;;5048503;28;45919;-79
2022/05/01 09:48:06;;;;;;;;;13.67;13.33;;;;;;;;5049419;28;45604;-81
2022/05/01 09:50:42;;;;;;;;;13.33;12.33;;;;;;;;5040458;28;45511;-79
2022/05/01 09:53:18;;;;;;;;;;;;;;;;;;;;;
2022/05/01 09:55:58;;;;;;;;;11.67;11.67;;;;;;;;5051413;28;73046;-81
2022/05/01 09:58:30;;;;;;;;;13.00;12.00;;;;;;;;5031754;28;47110;-80
2022/05/01 10:00:55;;;;;;;;;13.33;12.67;;;;;;;;5049718;28;45846;-80
2022/05/01 10:03:25;;;;;;;;;12.67;11.67;;;;;;;;5048873;28;45947;-81
2022/05/01 10:05:52;;;;;;;;;10.33;10.33;;;;;;;;5047320;28;45505;-79
2022/05/01 10:08:18;;;;;;;;;16.67;16.00;;;;;;;;5049597;28;46336;-79
2022/05/01 10:10:53;;;;;;;;;14.00;11.00;;;;;;;;5046100;28;45523;-78
2022/05/01 10:13:26;;;;;;;;;10.33;9.67;;;;;;;;5048037;28;45759;-77
2022/05/01 10:15:58;;;;;;;;;9.33;8.33;;;;;;;;5049217;28;46417;-79
2022/05/01 10:18:27;;;;;;;;;12.33;11.33;;;;;;;;5052738;28;46638;-82
2022/05/01 10:24:25;;;;;;;;;10.00;10.00;;;;;;;;5011343;28;45519;-81
2022/05/01 10:27:31;;;;;;;;;13.33;12.67;;;;;;;;5008004;28;45705;-78
2022/05/01 10:33:15;;;;;;;;;;;;;;;;;;;;;
2022/05/01 10:36:22;;;;;;;;;;;;;;;;;;;;;
2022/05/01 10:39:20;;;;;;;;;12.00;9.67;;;;;;;;5041155;28;74525;-79
2022/05/01 10:41:51;;;;;;;;;13.33;12.67;;;;;;;;5040932;28;45851;-78
2022/05/01 10:44:33;;;;;;;;;13.00;12.00;;;;;;;;5041132;28;45536;-77
2022/05/01 10:47:16;;;;;;;;;11.33;7.33;;;;;;;;5043783;28;45887;-76
2022/05/01 10:49:47;;;;;;;;;9.33;8.33;;;;;;;;5034301;28;46270;-87
2022/05/01 10:52:20;;;;;;;;;10.00;8.67;;;;;;;;5057093;28;47040;-81
2022/05/01 11:01:48;;;;;;;;;;;;;;;;;;;;;
2022/05/01 11:07:35;;;;;;;;;8.67;8.67;;;;;;;;5068168;28;45775;-79
2022/05/01 11:22:39;;;;;;;;;;;;;;;;;;;;;
2022/05/01 11:35:18;;;;;;;;;;;;;;;;;;;;;
2022/05/01 11:46:57;;;;;;;;;9.67;7.67;;;;;;;;4905016;29;45411;-84
2022/05/01 12:24:37;;;;;;;;;6.67;5.00;;;;;;;;4892068;28;45596;-82
2022/05/01 12:27:43;;;;;;;;;9.00;8.00;;;;;;;;4889024;29;46381;-85
2022/05/01 12:45:45;;;;;;;;;8.33;7.33;;;;;;;;5078143;28;44769;-86
2022/05/01 12:49:13;;;;;;;;;9.00;9.00;;;;;;;;5090950;28;44772;-86
2022/05/01 12:51:43;;;;;;;;;9.67;8.33;;;;;;;;5056458;28;45139;-83
2022/05/01 12:57:34;;;;;;;;;8.33;8.33;;;;;;;;5073775;28;45837;-84
2022/05/01 13:07:11;;;;;;;;;6.67;6.67;;;;;;;;5004229;28;45725;-81
2022/05/01 13:22:53;;;;;;;;;;;;;;;;;;;;;
2022/05/01 13:35:31;;;;;;;;;6.33;6.33;;;;;;;;4871471;29;45477;-84
2022/05/01 13:37:57;;;;;;;;;9.33;8.33;;;;;;;;4830313;29;45309;-84
2022/05/01 13:49:58;;;;;;;;;;;;;;;;;;;;;
2022/05/01 13:52:24;;;;;;;;;62.50;48.25;;;;;;;;4897994;28;73510;-86
2022/05/01 13:54:49;;;;;;;;;8.67;8.67;;;;;;;;4926391;28;46011;-84
2022/05/01 13:57:15;;;;;;;;;9.00;8.67;;;;;;;;4972620;28;46293;-83
2022/05/01 13:59:41;;;;;;;;;9.67;8.67;;;;;;;;5036863;28;45927;-81
2022/05/01 14:02:16;;;;;;;;;9.67;9.67;;;;;;;;5054135;28;45933;-81
2022/05/01 14:04:49;;;;;;;;;9.33;6.33;;;;;;;;5064729;27;47099;-85
2022/05/01 14:08:14;;;;;;;;;;;;;;;;;;;;;
2022/05/01 14:10:41;;;;;;;;;13.00;9.33;;;;;;;;4987056;28;67869;-83
2022/05/01 14:13:19;;;;;;;;;8.67;6.67;;;;;;;;5073341;28;45559;-85
2022/05/01 14:15:51;;;;;;;;;8.00;7.67;;;;;;;;5079722;27;45597;-83
2022/05/01 14:18:21;;;;;;;;;5.67;5.67;;;;;;;;5082739;27;45122;-82
2022/05/01 14:21:21;;;;;;;;;;;;;;;;;;;;;
2022/05/01 14:24:02;;;;;;;;;;;;;;;;;;;;;
2022/05/01 14:30:13;;;;;;;;;7.00;5.00;;;;;;;;5031250;28;45886;-81
2022/05/01 14:39:06;;;;;;;;;5.00;5.00;;;;;;;;5026115;28;46447;-83
2022/05/01 14:41:54;;;;;;;;;7.67;6.00;;;;;;;;5023996;28;45702;-81
2022/05/01 14:48:06;;;;;;;;;10.33;9.33;;;;;;;;4985342;28;45762;-85
2022/05/01 14:51:16;;;;;;;;;;;;;;;;;;;;;
2022/05/01 15:09:04;;;;;;;;;9.67;8.67;;;;;;;;5018582;28;45592;-87
2022/05/01 15:21:01;;;;;;;;;6.33;6.33;;;;;;;;5012409;28;46023;-79
2022/05/01 15:23:29;;;;;;;;;7.33;7.33;;;;;;;;4992810;28;45663;-78
2022/05/01 15:25:59;;;;;;;;;4.33;4.33;;;;;;;;5034386;28;47082;-80
2022/05/01 15:28:27;;;;;;;;;5.00;5.00;;;;;;;;5065523;27;45626;-81
2022/05/01 15:30:54;;;;;;;;;9.00;9.00;;;;;;;;5066169;27;45562;-79
2022/05/01 15:36:07;;;;;;;;;8.00;8.00;;;;;;;;5072699;27;45602;-85
2022/05/01 15:38:48;;;;;;;;;7.67;7.33;;;;;;;;5070295;28;45345;-82
2022/05/01 15:41:15;;;;;;;;;8.00;6.33;;;;;;;;5051261;28;45996;-83
2022/05/01 15:43:42;;;;;;;;;7.67;7.00;;;;;;;;5054724;28;45738;-82
2022/05/01 15:46:28;;;;;;;;;4.67;4.00;;;;;;;;5072748;27;46091;-83
2022/05/01 15:54:26;;;;;;;;;9.00;8.00;;;;;;;;5074625;27;46741;-80
2022/05/01 15:56:55;;;;;;;;;6.00;6.00;;;;;;;;5053266;28;46011;-80
2022/05/01 15:59:23;;;;;;;;;8.33;7.00;;;;;;;;5058850;28;45828;-79
2022/05/01 16:01:59;;;;;;;;;7.67;7.00;;;;;;;;5073219;27;45342;-79
2022/05/01 16:04:26;;;;;;;;;5.00;5.00;;;;;;;;5057268;28;45876;-79
2022/05/01 16:06:56;;;;;;;;;8.00;7.33;;;;;;;;5048772;28;46359;-80
2022/05/01 16:09:26;;;;;;;;;8.67;8.00;;;;;;;;5062864;28;45583;-81
2022/05/01 16:11:56;;;;;;;;;10.33;9.33;;;;;;;;5056811;28;45829;-82
2022/05/01 16:15:01;;;;;;;;;;;;;;;;;;;;;
2022/05/01 16:23:42;;;;;;;;;9.00;8.33;;;;;;;;4941107;28;46007;-81
2022/05/01 16:26:30;;;;;;;;;6.00;6.00;;;;;;;;4956311;28;45772;-81
2022/05/01 16:32:40;;;;;;;;;6.33;6.00;;;;;;;;4946396;28;45569;-82
2022/05/01 16:41:54;;;;;;;;;;;;;;;;;;;;;
2022/05/01 16:59:59;;;;;;;;;8.33;6.00;;;;;;;;4914186;28;45743;-83
2022/05/01 17:21:37;;;;;;;;;9.67;8.67;;;;;;;;4956801;28;45675;-81
2022/05/01 17:24:24;;;;;;;;;6.33;6.33;;;;;;;;5081444;28;44798;-81
2022/05/01 17:27:07;;;;;;;;;7.33;7.33;;;;;;;;5071475;27;45658;-78
2022/05/01 17:29:39;;;;;;;;;8.33;8.33;;;;;;;;5064519;27;45649;-78
2022/05/01 17:32:06;;;;;;;;;8.00;7.00;;;;;;;;5070134;27;45937;-78
2022/05/01 17:34:32;;;;;;;;;8.50;8.50;;;;;;;;5052944;28;45430;-80
2022/05/01 17:36:58;;;;;;;;;8.00;7.67;;;;;;;;5049539;27;45876;-79
2022/05/01 17:39:23;;;;;;;;;7.00;7.00;;;;;;;;5078937;27;46333;-82
2022/05/01 17:41:53;;;;;;;;;3.67;3.67;;;;;;;;5078875;27;45406;-79
2022/05/01 17:44:18;;;;;;;;;7.67;7.67;;;;;;;;5060887;28;45486;-77
2022/05/01 17:46:48;;;;;;;;;8.33;8.00;;;;;;;;5065908;27;46607;-82
2022/05/01 17:49:16;;;;;;;;;7.33;6.33;;;;;;;;5077873;27;45814;-80
2022/05/01 17:51:41;;;;;;;;;6.67;6.67;;;;;;;;5075143;27;45490;-82
2022/05/01 17:54:08;;;;;;;;;8.00;8.00;;;;;;;;5071465;27;45885;-80
2022/05/01 17:56:36;;;;;;;;;8.00;7.67;;;;;;;;5055433;28;47197;-81
2022/05/01 17:59:02;;;;;;;;;9.67;7.33;;;;;;;;5074087;27;45757;-80
2022/05/01 18:01:46;;;;;;;;;7.67;7.33;;;;;;;;5055204;27;45814;-82
2022/05/01 18:10:35;;;;;;;;;9.33;7.00;;;;;;;;5063534;28;45371;-80
2022/05/01 18:13:12;;;;;;;;;7.67;7.33;;;;;;;;5065477;28;45523;-81
2022/05/01 18:15:46;;;;;;;;;9.00;8.33;;;;;;;;5075834;27;45399;-81
2022/05/01 18:18:30;;;;;;;;;8.00;7.67;;;;;;;;5073402;28;45631;-81
2022/05/01 18:21:02;;;;;;;;;5.33;5.33;;;;;;;;5068163;27;45540;-80
2022/05/01 18:23:30;;;;;;;;;9.33;9.33;;;;;;;;5065626;28;46538;-77
2022/05/01 18:26:09;;;;;;;;;7.67;7.67;;;;;;;;5068626;27;45796;-79
2022/05/01 18:31:33;;;;;;;;;9.67;7.67;;;;;;;;5066366;28;45905;-80
2022/05/01 18:34:06;;;;;;;;;12.67;9.00;;;;;;;;5063667;27;45595;-82
2022/05/01 18:36:34;;;;;;;;;9.67;9.67;;;;;;;;5066505;27;45531;-83
2022/05/01 18:39:02;;;;;;;;;8.67;7.67;;;;;;;;5060175;27;45771;-83
2022/05/01 18:41:30;;;;;;;;;11.00;8.67;;;;;;;;5048660;28;46310;-83
2022/05/01 18:44:01;;;;;;;;;7.33;7.33;;;;;;;;5042972;28;47121;-81
2022/05/01 18:46:27;;;;;;;;;7.67;7.67;;;;;;;;5061457;28;45861;-82
2022/05/01 18:49:02;;;;;;;;;8.00;8.00;;;;;;;;5045485;28;45454;-82
2022/05/01 18:51:48;;;;;;;;;;;;;;;;;;;;;
2022/05/01 18:54:55;;;;;;;;;12.33;9.00;;;;;;;;5063591;27;73428;-83
2022/05/01 19:04:27;;;;;;;;;14.33;9.67;;;;;;;;4917770;28;45650;-85
2022/05/01 19:07:03;;;;;;;;;12.33;10.33;;;;;;;;4932044;28;45809;-83
2022/05/01 19:09:32;;;;;;;;;13.33;9.67;;;;;;;;5055020;28;45515;-85
2022/05/01 19:12:16;;;;;;;;;13.00;11.33;;;;;;;;5059299;28;45533;-84
2022/05/01 19:15:09;;;;;;;;;10.33;9.00;;;;;;;;5062848;28;46961;-82
2022/05/01 19:21:15;;;;;;;;;15.33;11.67;;;;;;;;5036861;27;45334;-84
2022/05/01 19:27:11;;;;;;;;;15.00;13.67;;;;;;;;5082087;28;46156;-83
2022/05/01 19:30:02;;;;;;;;;15.33;13.00;;;;;;;;5034940;28;45968;-84
2022/05/01 19:32:40;;;;;;;;;11.67;11.00;;;;;;;;5061905;28;45834;-84
2022/05/01 19:35:26;;;;;;;;;17.33;13.00;;;;;;;;5074532;28;46373;-83
2022/05/01 19:38:18;;;;;;;;;15.00;13.00;;;;;;;;5071673;28;45583;-83
2022/05/01 19:41:16;;;;;;;;;12.67;10.00;;;;;;;;5073468;28;45395;-84
2022/05/01 19:53:01;;;;;;;;;15.00;13.33;;;;;;;;5077023;28;45690;-83
2022/05/01 19:55:29;;;;;;;;;15.00;12.33;;;;;;;;5059567;28;45477;-83
2022/05/01 19:58:02;;;;;;;;;13.67;11.00;;;;;;;;5074585;28;45429;-84
2022/05/01 20:03:52;;;;;;;;;13.00;12.33;;;;;;;;5063829;28;44837;-84
2022/05/01 20:06:23;;;;;;;;;15.00;12.00;;;;;;;;5097808;28;44937;-83
2022/05/01 20:09:02;;;;;;;;;14.00;11.33;;;;;;;;5079623;28;45544;-83
2022/05/01 20:11:34;;;;;;;;;15.33;12.67;;;;;;;;5062253;28;45297;-82
2022/05/01 20:14:02;;;;;;;;;12.33;11.67;;;;;;;;5074242;28;45506;-85
2022/05/01 20:16:45;;;;;;;;;14.67;13.00;;;;;;;;5078444;28;44737;-86
2022/05/01 20:19:17;;;;;;;;;13.33;12.33;;;;;;;;5077555;27;45102;-86
2022/05/01 20:21:52;;;;;;;;;14.00;13.00;;;;;;;;5075505;28;45499;-85
2022/05/01 20:24:18;;;;;;;;;13.00;13.00;;;;;;;;5039102;28;45470;-84
2022/05/01 20:26:51;;;;;;;;;17.00;14.00;;;;;;;;5056018;28;45398;-86
2022/05/01 20:29:29;;;;;;;;;10.67;10.67;;;;;;;;5039977;28;46288;-85
2022/05/01 20:32:32;;;;;;;;;18.67;14.67;;;;;;;;5023811;28;47745;-84
2022/05/01 20:38:47;;;;;;;;;;;;;;;;;;;;;
2022/05/01 20:41:30;;;;;;;;;13.33;11.00;;;;;;;;5058846;28;74953;-86
2022/05/01 20:44:34;;;;;;;;;12.00;10.67;;;;;;;;5066990;28;45874;-83
2022/05/01 20:50:28;;;;;;;;;12.00;11.33;;;;;;;;4962592;28;45681;-86
2022/05/01 20:52:58;;;;;;;;;14.00;13.33;;;;;;;;4955105;28;45575;-84
2022/05/01 20:55:30;;;;;;;;;10.67;10.67;;;;;;;;5031544;28;47585;-85
2022/05/01 20:58:04;;;;;;;;;14.67;13.00;;;;;;;;5035086;28;45546;-84
2022/05/01 21:00:42;;;;;;;;;16.00;16.00;;;;;;;;5053915;28;45793;-84
2022/05/01 21:03:08;;;;;;;;;15.00;11.33;;;;;;;;5043994;28;45888;-83
2022/05/01 21:05:34;;;;;;;;;10.67;10.67;;;;;;;;5055770;28;48115;-82
2022/05/01 21:08:00;;;;;;;;;14.33;13.00;;;;;;;;5042516;28;45502;-81
2022/05/01 21:10:29;;;;;;;;;16.67;12.67;;;;;;;;5071445;28;45888;-85
2022/05/01 21:12:56;;;;;;;;;13.67;12.67;;;;;;;;5097320;28;45142;-84
2022/05/01 21:15:45;;;;;;;;;15.00;13.67;;;;;;;;5078247;28;45504;-84
2022/05/01 21:18:25;;;;;;;;;;;;;;;;;;;;;
2022/05/01 21:24:07;;;;;;;;;13.00;13.00;;;;;;;;5075166;28;45707;-83
2022/05/01 21:26:34;;;;;;;;;18.33;15.67;;;;;;;;5078603;28;46310;-84
2022/05/01 21:34:37;;;;;;;;;11.00;10.33;;;;;;;;5071312;28;45390;-85
2022/05/01 21:37:03;;;;;;;;;12.33;12.33;;;;;;;;5056672;28;46579;-82
2022/05/01 21:39:29;;;;;;;;;13.67;13.00;;;;;;;;5039687;28;45582;-86
2022/05/01 21:41:59;;;;;;;;;14.00;13.00;;;;;;;;5060010;28;45446;-86
2022/05/01 21:47:29;;;;;;;;;14.33;14.33;;;;;;;;5032259;28;45456;-84
2022/05/01 21:49:55;;;;;;;;;13.00;11.67;;;;;;;;5061791;28;45395;-86
2022/05/01 21:52:26;;;;;;;;;13.67;13.67;;;;;;;;5079248;28;45738;-85
2022/05/01 21:54:51;;;;;;;;;13.33;12.67;;;;;;;;5078798;28;45560;-85
2022/05/01 21:57:21;;;;;;;;;14.00;14.00;;;;;;;;5081714;28;45403;-85
2022/05/01 21:59:48;;;;;;;;;14.33;13.00;;;;;;;;5083562;28;45508;-82
2022/05/01 22:02:18;;;;;;;;;15.00;14.00;;;;;;;;5065314;28;45878;-83
2022/05/01 22:04:49;;;;;;;;;15.67;13.33;;;;;;;;5065222;28;45714;-84
2022/05/01 22:07:16;;;;;;;;;22.33;15.67;;;;;;;;5065027;28;46969;-82
2022/05/01 22:10:05;;;;;;;;;20.00;15.33;;;;;;;;5068041;28;45607;-85
2022/05/01 22:12:34;;;;;;;;;15.00;15.00;;;;;;;;5085796;28;45378;-85
2022/05/01 22:15:00;;;;;;;;;18.67;15.67;;;;;;;;5087536;28;45560;-85
2022/05/01 22:17:43;;;;;;;;;14.33;14.33;;;;;;;;5070890;28;45471;-83
2022/05/01 22:20:16;;;;;;;;;19.33;15.33;;;;;;;;5069975;28;45468;-86
2022/05/01 22:23:02;;;;;;;;;18.33;17.67;;;;;;;;5053022;28;44921;-83
2022/05/01 22:25:30;;;;;;;;;15.33;14.33;;;;;;;;5064725;28;45979;-84
2022/05/01 22:27:58;;;;;;;;;17.00;15.67;;;;;;;;5071384;28;45499;-82
2022/05/01 22:30:24;;;;;;;;;18.00;14.67;;;;;;;;5083811;28;45555;-81
2022/05/01 22:32:53;;;;;;;;;13.33;12.33;;;;;;;;5087571;28;45349;-85
2022/05/01 22:38:10;;;;;;;;;16.00;15.33;;;;;;;;5082888;28;45942;-83
2022/05/01 22:40:47;;;;;;;;;15.00;15.00;;;;;;;;5070404;28;45898;-84
2022/05/01 22:43:17;;;;;;;;;17.00;15.00;;;;;;;;5064754;28;45726;-83
2022/05/01 22:45:43;;;;;;;;;14.33;13.33;;;;;;;;5075841;28;45745;-85
2022/05/01 22:48:15;;;;;;;;;19.00;16.33;;;;;;;;5058495;28;45625;-83
2022/05/01 22:50:44;;;;;;;;;15.67;15.00;;;;;;;;5059177;28;45380;-85
2022/05/01 22:53:30;;;;;;;;;16.33;12.67;;;;;;;;5080156;28;45683;-84